createdAt,value
2022-10-05T00:01:39.831Z,101226.66
2022-10-05T00:06:47.983Z,101217.59
2022-10-05T00:11:51.505Z,101212.66
2022-10-05T00:16:53.539Z,101200.63
2022-10-05T00:22:15.880Z,101196.19
2022-10-05T00:27:23.582Z,101205.81
2022-10-05T00:32:25.479Z,101196.00
2022-10-05T00:37:27.360Z,101200.31
2022-10-05T00:42:51.307Z,101207.38
2022-10-05T00:48:07.447Z,101217.28
2022-10-05T00:53:31.314Z,101213.88
2022-10-05T00:58:53.474Z,101212.19
2022-10-05T01:04:07.115Z,101203.94
2022-10-05T01:09:44.193Z,101196.19
2022-10-05T01:14:58.108Z,101193.28
2022-10-05T01:20:27.810Z,101188.25
2022-10-05T01:25:51.332Z,101190.91
2022-10-05T01:31:11.036Z,101187.56
2022-10-05T01:36:27.925Z,101187.44
2022-10-05T01:42:12.143Z,101186.44
2022-10-05T01:47:23.491Z,101183.78
2022-10-05T01:52:43.830Z,101173.66
2022-10-05T01:57:54.867Z,101165.84
2022-10-05T02:03:04.911Z,101170.22
2022-10-05T02:08:31.469Z,101153.53
2022-10-05T02:13:44.866Z,101147.16
2022-10-05T02:18:57.907Z,101151.72
2022-10-05T02:24:07.028Z,101139.94
2022-10-05T02:29:11.699Z,101140.88
2022-10-05T02:34:40.798Z,101144.66
2022-10-05T02:39:57.988Z,101132.28
2022-10-05T02:45:18.193Z,101125.91
2022-10-05T02:50:27.369Z,101124.22
2022-10-05T02:55:47.043Z,101120.66
2022-10-05T03:00:55.602Z,101121.28
2022-10-05T03:06:04.115Z,101110.78
2022-10-05T03:11:16.449Z,101092.22
2022-10-05T03:16:56.550Z,101096.88
2022-10-05T03:22:01.036Z,101081.44
2022-10-05T03:27:29.349Z,101080.66
2022-10-05T03:32:45.764Z,101074.41
2022-10-05T03:37:55.848Z,101068.81
2022-10-05T03:43:21.786Z,101071.06
2022-10-05T03:48:34.210Z,101070.97
2022-10-05T03:53:44.114Z,101058.88
2022-10-05T03:59:08.325Z,101066.41
2022-10-05T04:04:19.170Z,101057.66
2022-10-05T04:09:30.463Z,101061.84
2022-10-05T04:14:41.873Z,101050.41
2022-10-05T04:19:59.608Z,101058.56
2022-10-05T04:25:20.059Z,101062.09
2022-10-05T04:30:24.921Z,101064.53
2022-10-05T04:35:57.782Z,101051.50
2022-10-05T04:41:08.093Z,101059.56
2022-10-05T04:46:36.936Z,101050.56
2022-10-05T04:52:03.516Z,101059.63
2022-10-05T04:57:14.041Z,101053.38
2022-10-05T05:02:53.308Z,101059.56
2022-10-05T05:08:32.539Z,101058.63
2022-10-05T05:13:55.706Z,101057.63
2022-10-05T05:19:03.481Z,101047.75
2022-10-05T05:24:23.731Z,101048.59
2022-10-05T05:29:34.750Z,101041.69
2022-10-05T05:34:47.131Z,101044.59
2022-10-05T05:40:07.293Z,101059.44
2022-10-05T05:45:20.270Z,101053.56
2022-10-05T05:50:40.138Z,101056.03
2022-10-05T05:55:47.564Z,101049.38
2022-10-05T06:01:30.665Z,101043.13
2022-10-05T06:06:38.711Z,101050.34
2022-10-05T06:11:51.320Z,101049.38
2022-10-05T06:17:19.488Z,101043.44
2022-10-05T06:22:33.144Z,101037.00
2022-10-05T06:27:37.564Z,101048.47
2022-10-05T06:32:51.290Z,101037.94
2022-10-05T06:38:11.233Z,101040.53
2022-10-05T06:43:40.556Z,101030.31
2022-10-05T06:49:18.886Z,101034.50
2022-10-05T06:54:40.244Z,101028.44
2022-10-05T06:59:59.509Z,101030.31
2022-10-05T07:05:29.270Z,101023.88
2022-10-05T07:10:39.908Z,101023.88
2022-10-05T07:15:57.878Z,101014.47
2022-10-05T07:21:13.188Z,101022.00
2022-10-05T07:26:29.829Z,101021.34
2022-10-05T07:32:13.070Z,101027.72
2022-10-05T07:37:45.606Z,101027.72
2022-10-05T07:43:00.029Z,101030.13
2022-10-05T07:48:15.449Z,101020.44
2022-10-05T07:53:26.180Z,101029.69
2022-10-05T07:58:38.228Z,101028.59
2022-10-05T08:03:45.879Z,101032.97
2022-10-05T08:08:54.792Z,101038.13
2022-10-05T08:14:06.539Z,101038.91
2022-10-05T08:19:26.344Z,101040.81
2022-10-05T08:24:39.367Z,101039.88
2022-10-05T08:29:52.904Z,101039.88
2022-10-05T08:34:54.996Z,101024.88
2022-10-05T08:40:01.097Z,101038.00
2022-10-05T08:45:32.202Z,101031.94
2022-10-05T08:50:58.663Z,101026.22
2022-10-05T08:56:28.484Z,101022.59
2022-10-05T09:01:52.687Z,101015.28
2022-10-05T09:07:40.247Z,101018.28
2022-10-05T09:13:27.119Z,101017.16
2022-10-05T09:18:50.663Z,101015.44
2022-10-05T09:24:13.765Z,101010.28
2022-10-05T09:29:46.683Z,101019.06
2022-10-05T09:35:16.179Z,101017.50
2022-10-05T09:40:36.300Z,101016.13
2022-10-05T09:46:29.445Z,101007.53
2022-10-05T09:51:59.010Z,101002.81
2022-10-05T09:57:31.484Z,100992.47
2022-10-05T10:03:02.568Z,100996.50
2022-10-05T10:08:35.662Z,100986.28
2022-10-05T10:13:55.896Z,100986.03
2022-10-05T10:19:00.603Z,100987.00
2022-10-05T10:24:16.492Z,100978.22
2022-10-05T10:29:30.832Z,100968.47
2022-10-05T10:34:36.305Z,100984.91
2022-10-05T10:40:16.019Z,100976.22
2022-10-05T10:45:36.177Z,100968.06
2022-10-05T10:50:52.078Z,100949.38
2022-10-05T10:56:12.407Z,100952.41
2022-10-05T11:01:38.663Z,100944.91
2022-10-05T11:07:23.450Z,100935.78
2022-10-05T11:13:10.104Z,100920.31
2022-10-05T11:18:20.817Z,100900.00
2022-10-05T11:23:47.424Z,100910.00
2022-10-05T11:29:12.310Z,100903.78
2022-10-05T11:34:35.251Z,100908.88
2022-10-05T11:39:55.024Z,100885.81
2022-10-05T11:45:21.961Z,100882.09
2022-10-05T11:50:43.150Z,100875.50
2022-10-05T11:56:16.276Z,100862.66
2022-10-05T12:01:24.199Z,100858.88
2022-10-05T12:06:37.539Z,100844.41
2022-10-05T12:12:06.258Z,100843.50
2022-10-05T12:18:08.558Z,100830.50
2022-10-05T12:23:24.202Z,100814.72
2022-10-05T12:28:35.238Z,100793.59
2022-10-05T12:34:28.267Z,100788.53
2022-10-05T12:39:41.625Z,100784.81
2022-10-05T12:45:06.399Z,100776.50
2022-10-05T12:50:22.255Z,100773.03
2022-10-05T12:55:42.648Z,100765.09
2022-10-05T13:00:54.429Z,100756.34
2022-10-05T13:06:04.441Z,100757.00
2022-10-05T13:11:17.201Z,100746.50
2022-10-05T13:16:27.425Z,100750.66
2022-10-05T13:22:04.089Z,100742.66
2022-10-05T13:27:28.069Z,100750.84
2022-10-05T13:32:46.448Z,100735.59
2022-10-05T13:38:24.613Z,100739.22
2022-10-05T13:43:44.711Z,100736.84
2022-10-05T13:49:15.651Z,100735.16
2022-10-05T13:54:21.585Z,100746.56
2022-10-05T13:59:35.855Z,100748.78
2022-10-05T14:04:48.441Z,100755.13
2022-10-05T14:09:50.366Z,100759.31
2022-10-05T14:14:54.771Z,100760.13
2022-10-05T14:20:00.466Z,100765.66
2022-10-05T14:25:02.432Z,100773.22
2022-10-05T14:30:13.172Z,100780.75
2022-10-05T14:35:17.981Z,100785.44
2022-10-05T14:40:31.783Z,100794.00
2022-10-05T14:45:34.050Z,100802.41
2022-10-05T14:50:51.940Z,100812.03
2022-10-05T14:56:08.904Z,100815.25
2022-10-05T15:01:35.517Z,100819.06
2022-10-05T15:06:41.627Z,100828.31
2022-10-05T15:11:51.481Z,100832.88
2022-10-05T15:16:57.945Z,100844.03
2022-10-05T15:22:08.781Z,100852.81
2022-10-05T15:27:24.043Z,100872.91
2022-10-05T15:32:47.229Z,100896.84
2022-10-05T15:38:12.242Z,100904.00
2022-10-05T15:43:20.187Z,100909.25
2022-10-05T15:48:29.445Z,100942.03
2022-10-05T15:54:20.387Z,100930.50
2022-10-05T15:59:38.993Z,100945.06
2022-10-05T16:05:45.162Z,100944.19
2022-10-05T16:10:47.021Z,100955.53
2022-10-05T16:16:25.070Z,100963.47
2022-10-05T16:21:58.180Z,100970.22
2022-10-05T16:27:03.983Z,100968.81
2022-10-05T16:32:17.610Z,100971.22
2022-10-05T16:37:25.648Z,100988.09
2022-10-05T16:43:01.323Z,100981.97
2022-10-05T16:48:18.281Z,100998.25
2022-10-05T16:53:38.961Z,100991.34
2022-10-05T16:59:06.795Z,100989.22
2022-10-05T17:04:48.869Z,101001.59
2022-10-05T17:10:29.313Z,100996.31
2022-10-05T17:16:08.506Z,100998.59
2022-10-05T17:21:25.585Z,101005.22
2022-10-05T17:26:45.837Z,101021.31
2022-10-05T17:32:16.021Z,101025.78
2022-10-05T17:37:35.899Z,101027.94
2022-10-05T17:42:37.682Z,101032.66
2022-10-05T17:47:59.268Z,101059.41
2022-10-05T17:53:40.969Z,101058.66
2022-10-05T17:58:57.860Z,101064.59
2022-10-05T18:04:11.599Z,101061.59
2022-10-05T18:09:22.029Z,101062.25
2022-10-05T18:14:25.328Z,101068.19
2022-10-05T18:19:31.636Z,101066.41
2022-10-05T18:24:53.394Z,101068.38
2022-10-05T18:30:24.355Z,101052.63
2022-10-05T18:35:38.207Z,101067.97
2022-10-05T18:40:40.476Z,101074.28
2022-10-05T18:46:08.365Z,101081.19
2022-10-05T18:51:22.640Z,101087.88
2022-10-05T18:56:49.796Z,101099.59
2022-10-05T19:01:58.450Z,101100.91
2022-10-05T19:07:37.892Z,101100.81
2022-10-05T19:13:12.139Z,101098.94
2022-10-05T19:18:46.789Z,101093.84
2022-10-05T19:24:02.358Z,101105.63
2022-10-05T19:29:20.185Z,101130.09
2022-10-05T19:34:47.574Z,101118.72
2022-10-05T19:40:16.219Z,101129.19
2022-10-05T19:45:26.517Z,101122.41
2022-10-05T19:50:33.834Z,101138.94
2022-10-05T19:55:39.786Z,101138.22
2022-10-05T20:00:42.656Z,101142.84
2022-10-05T20:05:45.376Z,101135.41
2022-10-05T20:11:10.492Z,101146.56
2022-10-05T20:16:50.600Z,101152.53
2022-10-05T20:21:57.033Z,101165.69
2022-10-05T20:27:06.204Z,101164.84
2022-10-05T20:32:12.432Z,101178.00
2022-10-05T20:37:16.501Z,101183.78
2022-10-05T20:42:19.914Z,101205.44
2022-10-05T20:47:23.385Z,101211.69
2022-10-05T20:52:25.626Z,101238.25
2022-10-05T20:57:27.621Z,101266.03
2022-10-05T21:02:29.451Z,101315.38
2022-10-05T21:07:34.322Z,101310.81
2022-10-05T21:12:36.307Z,101315.00
2022-10-05T21:17:39.336Z,101319.69
2022-10-05T21:22:41.427Z,101325.91
2022-10-05T21:27:43.169Z,101332.59
2022-10-05T21:32:45.278Z,101343.88
2022-10-05T21:37:47.238Z,101347.81
2022-10-05T21:42:49.422Z,101353.63
2022-10-05T21:47:51.464Z,101357.84
2022-10-05T21:52:54.948Z,101361.75
2022-10-05T21:57:58.869Z,101370.66
2022-10-05T22:03:00.779Z,101383.19
2022-10-05T22:08:04.123Z,101409.66
2022-10-05T22:13:06.110Z,101417.47
2022-10-05T22:18:15.979Z,101430.28
2022-10-05T22:23:17.864Z,101445.97
2022-10-05T22:28:20.627Z,101468.59
2022-10-05T22:33:22.534Z,101475.56
2022-10-05T22:38:24.381Z,101475.41
2022-10-05T22:43:27.243Z,101491.56
2022-10-05T22:48:29.659Z,101482.63
2022-10-05T22:53:32.169Z,101497.53
2022-10-05T22:58:34.229Z,101497.53
2022-10-05T23:03:36.639Z,101508.59
2022-10-05T23:08:39.409Z,101513.63
2022-10-05T23:13:41.811Z,101524.44
2022-10-05T23:18:44.832Z,101538.41
2022-10-05T23:23:49.145Z,101551.06
2022-10-05T23:28:51.477Z,101561.34
2022-10-05T23:33:53.953Z,101568.09
2022-10-05T23:38:55.758Z,101574.06
2022-10-05T23:43:57.730Z,101591.00
2022-10-05T23:48:59.700Z,101593.38
2022-10-05T23:54:01.758Z,101607.72
2022-10-05T23:59:03.866Z,101623.09
